createdAt,value
2018-09-25T00:01:12.990Z,6.03
2018-09-25T00:03:53.089Z,6.00
2018-09-25T00:06:32.771Z,6.10
2018-09-25T00:09:14.889Z,6.30
2018-09-25T00:11:54.723Z,6.00
2018-09-25T00:14:34.574Z,5.70
2018-09-25T00:17:14.429Z,6.10
2018-09-25T00:19:55.147Z,6.20
2018-09-25T00:22:35.568Z,6.10
2018-09-25T00:25:16.234Z,6.20
2018-09-25T00:27:56.557Z,6.10
2018-09-25T00:30:36.414Z,7.93
2018-09-25T00:33:16.531Z,6.13
2018-09-25T00:35:56.378Z,5.67
2018-09-25T00:38:36.352Z,9.40
2018-09-25T00:41:16.329Z,6.57
2018-09-25T00:43:56.101Z,5.93
2018-09-25T00:46:36.460Z,5.40
2018-09-25T00:49:16.211Z,6.20
2018-09-25T00:51:56.297Z,6.00
2018-09-25T00:54:35.949Z,6.33
2018-09-25T00:57:15.925Z,7.60
2018-09-25T00:59:55.876Z,6.30
2018-09-25T01:02:35.778Z,6.17
2018-09-25T01:05:15.627Z,5.80
2018-09-25T01:07:55.609Z,5.77
2018-09-25T01:10:35.744Z,5.63
2018-09-25T01:13:15.792Z,5.70
2018-09-25T01:15:56.096Z,5.93
2018-09-25T01:18:36.008Z,6.07
2018-09-25T01:21:15.833Z,6.93
2018-09-25T01:24:04.244Z,5.87
2018-09-25T01:26:43.891Z,5.70
2018-09-25T01:29:23.701Z,5.67
2018-09-25T01:32:03.601Z,5.93
2018-09-25T01:34:43.518Z,6.77
2018-09-25T01:37:23.856Z,6.37
2018-09-25T01:40:03.721Z,7.57
2018-09-25T01:42:43.800Z,5.83
2018-09-25T01:45:25.116Z,6.30
2018-09-25T01:48:05.115Z,6.47
2018-09-25T01:50:45.625Z,6.00
2018-09-25T01:53:25.527Z,6.00
2018-09-25T01:56:05.241Z,6.53
2018-09-25T01:58:45.127Z,6.53
2018-09-25T02:01:24.946Z,6.20
2018-09-25T02:04:05.058Z,6.20
2018-09-25T02:06:44.897Z,6.70
2018-09-25T02:09:25.124Z,6.30
2018-09-25T02:12:05.076Z,6.67
2018-09-25T02:14:44.848Z,6.37
2018-09-25T02:17:24.616Z,6.30
2018-09-25T02:20:08.606Z,6.00
2018-09-25T02:22:48.579Z,6.57
2018-09-25T02:25:31.736Z,6.07
2018-09-25T02:28:12.785Z,6.27
2018-09-25T02:30:53.912Z,7.37
2018-09-25T02:33:37.458Z,6.37
2018-09-25T02:36:35.262Z,6.63
2018-09-25T02:39:15.468Z,7.10
2018-09-25T02:41:55.995Z,6.30
2018-09-25T02:44:35.704Z,6.50
2018-09-25T02:47:15.571Z,6.30
2018-09-25T02:49:55.668Z,7.63
2018-09-25T02:52:35.910Z,6.60
2018-09-25T02:55:16.007Z,6.03
2018-09-25T02:57:56.367Z,6.27
2018-09-25T03:00:36.390Z,6.30
2018-09-25T03:03:16.672Z,6.67
2018-09-25T03:05:56.540Z,6.67
2018-09-25T03:08:36.986Z,7.60
2018-09-25T03:11:16.816Z,5.83
2018-09-25T03:13:56.698Z,6.10
2018-09-25T03:16:37.624Z,6.40
2018-09-25T03:19:18.639Z,6.33
2018-09-25T03:21:58.624Z,7.50
2018-09-25T03:24:38.305Z,8.43
2018-09-25T03:27:18.192Z,7.77
2018-09-25T03:29:58.014Z,7.80
2018-09-25T03:32:38.033Z,7.73
2018-09-25T03:35:17.891Z,7.63
2018-09-25T03:37:57.733Z,7.00
2018-09-25T03:40:37.577Z,8.27
2018-09-25T03:43:17.429Z,7.10
2018-09-25T03:45:57.325Z,7.27
2018-09-25T03:48:37.665Z,9.00
2018-09-25T03:51:17.632Z,7.03
2018-09-25T03:53:57.948Z,7.27
2018-09-25T03:56:39.116Z,6.97
2018-09-25T03:59:19.357Z,6.97
2018-09-25T04:01:59.225Z,6.47
2018-09-25T04:04:39.136Z,6.30
2018-09-25T04:07:20.056Z,6.50
2018-09-25T04:10:00.192Z,6.73
2018-09-25T04:12:40.081Z,7.00
2018-09-25T04:15:20.108Z,6.50
2018-09-25T04:18:01.092Z,6.50
2018-09-25T04:20:40.960Z,6.77
2018-09-25T04:23:20.820Z,7.10
2018-09-25T04:26:03.194Z,6.80
2018-09-25T04:28:43.309Z,6.90
2018-09-25T04:31:23.469Z,6.80
2018-09-25T04:34:11.170Z,6.97
2018-09-25T04:36:55.382Z,6.80
2018-09-25T04:39:35.492Z,8.30
2018-09-25T04:42:20.866Z,7.50
2018-09-25T04:45:00.756Z,7.70
2018-09-25T04:47:40.670Z,7.07
2018-09-25T04:50:20.800Z,6.77
2018-09-25T04:56:00.133Z,7.40
2018-09-25T04:58:40.033Z,7.20
2018-09-25T05:01:19.928Z,7.17
2018-09-25T05:04:00.144Z,8.23
2018-09-25T05:06:39.859Z,7.80
2018-09-25T05:09:19.808Z,7.83
2018-09-25T05:11:59.909Z,8.40
2018-09-25T05:14:40.106Z,9.27
2018-09-25T05:17:20.672Z,9.13
2018-09-25T05:20:00.599Z,9.53
2018-09-25T05:22:40.480Z,7.90
2018-09-25T05:25:21.297Z,11.00
2018-09-25T05:28:01.216Z,8.13
2018-09-25T05:30:41.117Z,9.00
2018-09-25T05:33:20.919Z,8.17
2018-09-25T05:36:00.713Z,7.50
2018-09-25T05:38:40.702Z,7.43
2018-09-25T05:41:20.712Z,6.90
2018-09-25T05:44:00.525Z,6.83
2018-09-25T05:46:40.576Z,7.13
2018-09-25T05:49:20.666Z,6.97
2018-09-25T05:52:00.999Z,9.07
2018-09-25T05:54:41.004Z,7.90
2018-09-25T05:57:20.799Z,6.73
2018-09-25T06:00:00.770Z,7.30
2018-09-25T06:02:40.722Z,7.27
2018-09-25T06:05:21.032Z,7.00
2018-09-25T06:08:01.278Z,6.67
2018-09-25T06:10:41.670Z,7.40
2018-09-25T06:13:21.705Z,6.87
2018-09-25T06:16:01.546Z,6.87
2018-09-25T06:18:41.446Z,7.77
2018-09-25T06:21:22.124Z,7.63
2018-09-25T06:24:01.956Z,7.67
2018-09-25T06:26:42.072Z,7.70
2018-09-25T06:29:21.982Z,8.23
2018-09-25T06:32:02.220Z,7.33
2018-09-25T06:34:42.659Z,8.77
2018-09-25T06:37:22.553Z,10.47
2018-09-25T06:40:02.583Z,8.67
2018-09-25T06:42:43.133Z,8.27
2018-09-25T06:45:22.829Z,8.80
2018-09-25T06:48:02.761Z,7.93
2018-09-25T06:50:42.524Z,9.87
2018-09-25T06:53:22.908Z,7.37
2018-09-25T06:56:02.566Z,7.53
2018-09-25T06:58:42.303Z,8.07
2018-09-25T07:01:22.034Z,9.43
2018-09-25T07:04:01.945Z,9.37
2018-09-25T07:06:41.818Z,7.73
2018-09-25T07:09:21.820Z,7.03
2018-09-25T07:12:01.497Z,6.63
2018-09-25T07:14:41.717Z,6.77
2018-09-25T07:17:21.593Z,6.07
2018-09-25T07:20:01.365Z,6.27
2018-09-25T07:22:41.107Z,7.37
2018-09-25T07:25:21.435Z,6.40
2018-09-25T07:28:01.283Z,8.20
2018-09-25T07:30:41.094Z,6.63
2018-09-25T07:33:21.059Z,5.70
2018-09-25T07:36:00.912Z,6.43
2018-09-25T07:38:40.832Z,5.47
2018-09-25T07:41:20.643Z,4.63
2018-09-25T07:44:00.425Z,5.40
2018-09-25T07:46:40.498Z,6.33
2018-09-25T07:49:20.464Z,8.77
2018-09-25T07:52:00.372Z,6.60
2018-09-25T07:54:40.678Z,5.57
2018-09-25T07:57:20.631Z,6.00
2018-09-25T08:00:00.931Z,8.33
2018-09-25T08:02:40.775Z,5.30
2018-09-25T08:05:21.061Z,5.13
2018-09-25T08:08:00.869Z,5.57
2018-09-25T08:10:41.152Z,7.73
2018-09-25T08:13:21.331Z,7.07
2018-09-25T08:16:01.373Z,6.77
2018-09-25T08:18:41.142Z,8.50
2018-09-25T08:21:20.652Z,6.80
2018-09-25T08:24:01.064Z,5.17
2018-09-25T08:26:41.161Z,6.40
2018-09-25T08:29:20.929Z,5.53
2018-09-25T08:32:00.693Z,4.47
2018-09-25T08:34:40.716Z,6.70
2018-09-25T08:37:20.653Z,7.40
2018-09-25T08:40:01.276Z,4.13
2018-09-25T08:42:40.916Z,6.83
2018-09-25T08:45:20.645Z,5.80
2018-09-25T08:48:00.843Z,5.73
2018-09-25T08:50:40.479Z,6.60
2018-09-25T08:53:20.508Z,4.57
2018-09-25T08:56:00.582Z,6.47
2018-09-25T08:58:40.485Z,3.90
2018-09-25T09:01:20.328Z,7.57
2018-09-25T09:04:00.520Z,6.60
2018-09-25T09:06:40.689Z,6.10
2018-09-25T09:09:20.773Z,6.03
2018-09-25T09:12:00.518Z,6.00
2018-09-25T09:14:40.577Z,7.63
2018-09-25T09:17:20.262Z,3.90
2018-09-25T09:20:00.215Z,5.67
2018-09-25T09:22:39.959Z,6.17
2018-09-25T09:25:20.162Z,6.13
2018-09-25T09:28:00.118Z,6.60
2018-09-25T09:30:40.426Z,6.83
2018-09-25T09:33:20.114Z,9.33
2018-09-25T09:36:00.010Z,6.97
2018-09-25T09:38:39.557Z,6.33
2018-09-25T09:41:19.258Z,5.10
2018-09-25T09:43:59.176Z,5.73
2018-09-25T09:46:38.956Z,4.90
2018-09-25T09:49:18.893Z,5.77
2018-09-25T09:51:59.357Z,3.63
2018-09-25T09:54:39.289Z,3.67
2018-09-25T09:57:19.202Z,4.13
2018-09-25T09:59:59.382Z,4.30
2018-09-25T10:02:39.344Z,4.70
2018-09-25T10:05:19.299Z,4.63
2018-09-25T10:07:59.061Z,5.53
2018-09-25T10:10:38.836Z,4.27
2018-09-25T10:13:18.713Z,3.00
2018-09-25T10:15:58.483Z,4.90
2018-09-25T10:18:38.155Z,5.97
2018-09-25T10:21:18.149Z,4.23
2018-09-25T10:23:57.955Z,7.17
2018-09-25T10:26:37.890Z,6.50
2018-09-25T10:29:17.936Z,6.70
2018-09-25T10:31:58.250Z,4.17
2018-09-25T10:34:38.051Z,5.80
2018-09-25T10:37:18.447Z,6.17
2018-09-25T10:39:58.437Z,5.87
2018-09-25T10:42:38.139Z,4.43
2018-09-25T10:45:17.996Z,3.17
2018-09-25T10:47:58.129Z,5.17
2018-09-25T10:50:38.093Z,4.60
2018-09-25T10:53:17.921Z,3.27
2018-09-25T10:55:57.837Z,3.87
2018-09-25T10:58:38.014Z,4.87
2018-09-25T11:01:17.712Z,3.90
2018-09-25T11:03:57.532Z,3.60
2018-09-25T11:09:33.736Z,5.20
2018-09-25T11:12:13.805Z,4.10
2018-09-25T11:14:53.839Z,4.87
2018-09-25T11:17:33.499Z,3.20
2018-09-25T11:20:13.564Z,6.83
2018-09-25T11:22:53.564Z,4.73
2018-09-25T11:25:33.289Z,4.13
2018-09-25T11:28:13.539Z,4.37
2018-09-25T11:30:53.492Z,3.37
2018-09-25T11:33:33.561Z,3.07
2018-09-25T11:36:14.007Z,4.23
2018-09-25T11:38:53.769Z,5.10
2018-09-25T11:41:34.633Z,5.33
2018-09-25T11:44:15.015Z,4.07
2018-09-25T11:46:55.065Z,4.77
2018-09-25T11:49:35.261Z,4.83
2018-09-25T11:52:15.168Z,3.97
2018-09-25T11:54:55.018Z,4.40
2018-09-25T11:57:35.161Z,3.83
2018-09-25T12:00:14.862Z,3.80
2018-09-25T12:02:55.241Z,3.27
2018-09-25T12:05:35.227Z,2.87
2018-09-25T12:08:15.182Z,4.57
2018-09-25T12:10:55.530Z,5.63
2018-09-25T12:13:35.774Z,4.07
2018-09-25T12:16:15.855Z,3.00
2018-09-25T12:18:56.203Z,2.47
2018-09-25T12:21:36.104Z,2.20
2018-09-25T12:24:16.122Z,3.07
2018-09-25T12:26:56.314Z,3.93
2018-09-25T12:29:36.844Z,4.40
2018-09-25T12:32:16.783Z,2.70
2018-09-25T12:34:56.748Z,2.93
2018-09-25T12:37:36.580Z,4.13
2018-09-25T12:40:16.737Z,3.73
2018-09-25T12:42:56.872Z,4.27
2018-09-25T12:45:36.959Z,5.20
2018-09-25T12:48:16.972Z,3.17
2018-09-25T12:50:57.101Z,4.63
2018-09-25T12:53:37.170Z,2.60
2018-09-25T12:56:17.705Z,3.23
2018-09-25T12:58:57.830Z,4.90
2018-09-25T13:01:37.740Z,2.77
2018-09-25T13:04:17.764Z,2.60
2018-09-25T13:06:58.112Z,2.57
2018-09-25T13:09:38.113Z,3.17
2018-09-25T13:12:18.286Z,2.77
2018-09-25T13:14:58.374Z,2.40
2018-09-25T13:17:38.414Z,3.27
2018-09-25T13:20:18.877Z,6.60
2018-09-25T13:23:07.756Z,3.37
2018-09-25T13:25:47.653Z,3.27
2018-09-25T13:28:27.552Z,4.40
2018-09-25T13:31:08.014Z,4.43
2018-09-25T13:33:48.084Z,4.17
2018-09-25T13:36:27.981Z,2.43
2018-09-25T13:39:08.053Z,5.10
2018-09-25T13:41:48.523Z,2.77
2018-09-25T13:44:28.319Z,4.77
2018-09-25T13:47:08.483Z,6.43
2018-09-25T13:49:48.510Z,3.37
2018-09-25T13:52:28.443Z,4.17
2018-09-25T13:55:08.325Z,4.40
2018-09-25T13:57:52.452Z,3.23
2018-09-25T14:00:32.541Z,5.57
2018-09-25T14:03:13.195Z,3.70
2018-09-25T14:05:53.094Z,4.63
2018-09-25T14:08:35.305Z,3.77
2018-09-25T14:11:15.029Z,5.90
2018-09-25T14:13:55.189Z,3.47
2018-09-25T14:16:35.045Z,4.03
2018-09-25T14:19:15.153Z,3.43
2018-09-25T14:21:55.721Z,3.53
2018-09-25T14:24:35.927Z,3.50
2018-09-25T14:27:16.165Z,3.77
2018-09-25T14:29:55.931Z,3.90
2018-09-25T14:32:35.571Z,4.03
2018-09-25T14:35:15.632Z,3.87
2018-09-25T14:37:55.673Z,5.73
2018-09-25T14:40:36.122Z,2.93
2018-09-25T14:43:16.251Z,3.13
2018-09-25T14:45:56.016Z,3.73
2018-09-25T14:48:36.085Z,4.73
2018-09-25T14:51:16.092Z,4.07
2018-09-25T14:53:56.162Z,3.67
2018-09-25T14:56:36.221Z,3.63
2018-09-25T14:59:28.377Z,3.47
2018-09-25T15:02:08.260Z,5.70
2018-09-25T15:04:48.388Z,4.40
2018-09-25T15:07:28.184Z,4.50
2018-09-25T15:10:08.202Z,6.00
2018-09-25T15:12:48.183Z,3.77
2018-09-25T15:15:30.529Z,3.80
2018-09-25T15:18:10.995Z,5.80
2018-09-25T15:20:51.384Z,7.03
2018-09-25T15:23:38.785Z,3.47
2018-09-25T15:26:20.219Z,3.50
2018-09-25T15:29:01.518Z,2.77
2018-09-25T15:31:42.795Z,4.20
2018-09-25T15:34:23.528Z,2.80
2018-09-25T15:37:03.661Z,3.67
2018-09-25T15:39:43.437Z,3.67
2018-09-25T15:42:23.652Z,6.00
2018-09-25T15:45:03.876Z,3.40
2018-09-25T15:47:44.271Z,5.40
2018-09-25T15:50:24.772Z,4.33
2018-09-25T15:53:05.456Z,4.20
2018-09-25T15:55:45.378Z,4.10
2018-09-25T15:58:25.307Z,3.83
2018-09-25T16:01:05.135Z,3.57
2018-09-25T16:03:44.989Z,3.93
2018-09-25T16:06:25.017Z,5.37
2018-09-25T16:09:05.408Z,6.50
2018-09-25T16:11:45.177Z,4.87
2018-09-25T16:14:25.494Z,3.40
2018-09-25T16:17:05.671Z,4.77
2018-09-25T16:19:45.571Z,6.03
2018-09-25T16:22:25.761Z,5.43
2018-09-25T16:25:05.535Z,4.60
2018-09-25T16:27:45.800Z,4.47
2018-09-25T16:30:26.122Z,3.97
2018-09-25T16:33:06.157Z,5.53
2018-09-25T16:35:46.292Z,4.23
2018-09-25T16:38:26.059Z,5.00
2018-09-25T16:41:05.850Z,6.53
2018-09-25T16:43:46.024Z,5.63
2018-09-25T16:46:25.933Z,4.00
2018-09-25T16:49:05.825Z,4.57
2018-09-25T16:51:45.586Z,7.33
2018-09-25T16:54:25.512Z,5.47
2018-09-25T16:57:05.636Z,4.77
2018-09-25T16:59:45.316Z,6.20
2018-09-25T17:02:25.416Z,6.33
2018-09-25T17:05:05.208Z,5.67
2018-09-25T17:07:45.507Z,5.13
2018-09-25T17:10:25.663Z,4.10
2018-09-25T17:13:05.486Z,4.00
2018-09-25T17:15:45.727Z,5.33
2018-09-25T17:18:25.921Z,6.23
2018-09-25T17:21:05.840Z,4.03
2018-09-25T17:23:45.576Z,3.40
2018-09-25T17:26:41.388Z,6.40
2018-09-25T17:29:21.223Z,3.43
2018-09-25T17:32:01.403Z,4.57
2018-09-25T17:34:41.598Z,6.63
2018-09-25T17:37:22.467Z,3.83
2018-09-25T17:40:02.342Z,4.43
2018-09-25T17:42:42.720Z,5.67
2018-09-25T17:45:22.531Z,7.43
2018-09-25T17:48:02.316Z,5.53
2018-09-25T17:50:42.192Z,5.27
2018-09-25T17:53:22.240Z,3.90
2018-09-25T17:56:02.252Z,4.33
2018-09-25T17:58:42.257Z,4.87
2018-09-25T18:01:22.289Z,4.77
2018-09-25T18:04:02.233Z,3.93
2018-09-25T18:06:42.048Z,4.93
2018-09-25T18:09:22.339Z,4.07
2018-09-25T18:12:02.531Z,4.10
2018-09-25T18:14:46.069Z,6.77
2018-09-25T18:17:32.572Z,6.53
2018-09-25T18:20:12.611Z,4.60
2018-09-25T18:22:52.373Z,4.63
2018-09-25T18:25:33.420Z,4.37
2018-09-25T18:28:13.419Z,6.23
2018-09-25T18:30:53.607Z,5.57
2018-09-25T18:33:35.133Z,4.33
2018-09-25T18:36:14.924Z,4.80
2018-09-25T18:38:55.980Z,5.00
2018-09-25T18:41:36.071Z,5.43
2018-09-25T18:44:32.415Z,5.23
2018-09-25T18:47:12.782Z,3.93
2018-09-25T18:49:57.016Z,4.50
2018-09-25T18:52:36.871Z,6.00
2018-09-25T18:55:17.154Z,5.70
2018-09-25T18:57:57.008Z,4.97
2018-09-25T19:00:44.886Z,6.50
2018-09-25T19:03:33.991Z,8.93
2018-09-25T19:06:15.064Z,4.90
2018-09-25T19:08:59.963Z,5.70
2018-09-25T19:11:39.971Z,6.60
2018-09-25T19:14:19.649Z,6.47
2018-09-25T19:16:59.463Z,5.43
2018-09-25T19:19:40.393Z,6.60
2018-09-25T19:22:23.081Z,5.60
2018-09-25T19:25:03.407Z,7.10
2018-09-25T19:27:46.291Z,7.20
2018-09-25T19:30:28.090Z,5.80
2018-09-25T19:33:25.414Z,7.20
2018-09-25T19:36:07.657Z,6.20
2018-09-25T19:38:47.725Z,7.20
2018-09-25T19:41:27.879Z,7.10
2018-09-25T19:44:08.570Z,7.87
2018-09-25T19:46:52.762Z,5.00
2018-09-25T19:49:32.704Z,7.43
2018-09-25T19:52:12.698Z,5.80
2018-09-25T19:54:52.676Z,5.27
2018-09-25T19:57:32.419Z,6.30
2018-09-25T20:03:06.184Z,6.12
2018-09-25T20:06:00.389Z,6.50
2018-09-25T20:08:40.594Z,6.70
2018-09-25T20:11:20.332Z,9.60
2018-09-25T20:14:00.045Z,8.20
2018-09-25T20:16:53.126Z,8.93
2018-09-25T20:19:33.350Z,8.67
2018-09-25T20:22:14.519Z,9.10
2018-09-25T20:24:54.741Z,8.03
2018-09-25T20:27:34.677Z,9.40
2018-09-25T20:30:14.764Z,8.47
2018-09-25T20:33:00.417Z,5.80
2018-09-25T20:35:40.440Z,6.70
2018-09-25T20:38:20.670Z,7.17
2018-09-25T20:41:00.703Z,7.17
2018-09-25T20:43:40.876Z,6.40
2018-09-25T20:46:20.856Z,5.80
2018-09-25T20:49:02.025Z,6.10
2018-09-25T20:51:42.008Z,7.10
2018-09-25T20:54:22.345Z,5.50
2018-09-25T20:57:02.808Z,6.63
2018-09-25T20:59:42.755Z,5.93
2018-09-25T21:02:22.545Z,5.10
2018-09-25T21:05:02.517Z,5.40
2018-09-25T21:07:42.822Z,5.57
2018-09-25T21:10:23.161Z,5.93
2018-09-25T21:13:03.056Z,5.50
2018-09-25T21:15:44.630Z,5.73
2018-09-25T21:18:24.526Z,5.77
2018-09-25T21:21:05.504Z,5.23
2018-09-25T21:23:45.326Z,5.67
2018-09-25T21:26:25.408Z,5.37
2018-09-25T21:29:05.393Z,7.43
2018-09-25T21:31:45.277Z,5.63
2018-09-25T21:34:25.208Z,6.13
2018-09-25T21:37:05.156Z,6.47
2018-09-25T21:39:44.884Z,6.07
2018-09-25T21:42:25.229Z,5.20
2018-09-25T21:45:05.388Z,5.43
2018-09-25T21:47:55.873Z,5.43
2018-09-25T21:50:35.744Z,5.83
2018-09-25T21:53:15.488Z,5.60
2018-09-25T21:55:55.370Z,5.20
2018-09-25T21:58:36.130Z,4.97
2018-09-25T22:01:16.339Z,5.70
2018-09-25T22:03:56.229Z,5.77
2018-09-25T22:06:35.993Z,5.73
2018-09-25T22:09:16.207Z,5.90
2018-09-25T22:11:56.288Z,5.43
2018-09-25T22:14:36.108Z,6.67
2018-09-25T22:17:15.864Z,5.40
2018-09-25T22:19:55.747Z,5.60
2018-09-25T22:22:36.384Z,4.90
2018-09-25T22:25:16.796Z,5.23
2018-09-25T22:27:56.783Z,5.40
2018-09-25T22:30:36.646Z,6.13
2018-09-25T22:33:16.401Z,6.63
2018-09-25T22:35:56.689Z,5.73
2018-09-25T22:38:36.760Z,6.03
2018-09-25T22:41:17.004Z,6.40
2018-09-25T22:43:56.788Z,7.73
2018-09-25T22:46:36.704Z,7.67
2018-09-25T22:49:16.596Z,8.07
2018-09-25T22:51:56.429Z,9.57
2018-09-25T22:54:36.075Z,8.10
2018-09-25T22:57:16.144Z,8.10
2018-09-25T22:59:56.052Z,8.03
2018-09-25T23:02:35.858Z,7.30
2018-09-25T23:05:15.696Z,7.13
2018-09-25T23:07:55.558Z,6.67
2018-09-25T23:10:38.810Z,6.30
2018-09-25T23:13:19.450Z,7.27
2018-09-25T23:15:59.282Z,6.87
2018-09-25T23:18:39.534Z,6.07
2018-09-25T23:21:19.344Z,5.80
2018-09-25T23:23:59.136Z,5.90
2018-09-25T23:26:39.521Z,8.83
2018-09-25T23:29:19.547Z,5.83
2018-09-25T23:32:00.146Z,6.50
2018-09-25T23:34:40.049Z,6.20
2018-09-25T23:37:19.961Z,6.03
2018-09-25T23:39:59.752Z,6.10
2018-09-25T23:42:40.488Z,6.20
2018-09-25T23:45:21.607Z,6.47
2018-09-25T23:48:04.540Z,6.60
2018-09-25T23:50:49.589Z,6.03
2018-09-25T23:53:32.003Z,7.47
2018-09-25T23:56:18.631Z,5.77
2018-09-25T23:59:00.072Z,6.13
